sensor_id;sensor_type;location;lat;lon;timestamp;temperature;humidity
20091;DHT22;10205;49.678;6.560;2022-07-09T00:01:01;27.90;34.40
20091;DHT22;10205;49.678;6.560;2022-07-09T00:03:28;27.80;34.50
20091;DHT22;10205;49.678;6.560;2022-07-09T00:05:56;27.80;34.50
20091;DHT22;10205;49.678;6.560;2022-07-09T00:08:23;27.70;34.60
20091;DHT22;10205;49.678;6.560;2022-07-09T00:10:52;27.70;34.70
20091;DHT22;10205;49.678;6.560;2022-07-09T00:13:19;27.60;34.70
20091;DHT22;10205;49.678;6.560;2022-07-09T00:15:46;27.60;34.80
20091;DHT22;10205;49.678;6.560;2022-07-09T00:18:13;27.50;34.80
20091;DHT22;10205;49.678;6.560;2022-07-09T00:20:41;27.50;34.90
20091;DHT22;10205;49.678;6.560;2022-07-09T00:23:08;27.40;35.00
20091;DHT22;10205;49.678;6.560;2022-07-09T00:25:35;27.40;35.10
20091;DHT22;10205;49.678;6.560;2022-07-09T00:28:04;27.30;35.20
20091;DHT22;10205;49.678;6.560;2022-07-09T00:30:31;27.30;35.40
20091;DHT22;10205;49.678;6.560;2022-07-09T00:32:58;27.20;35.30
20091;DHT22;10205;49.678;6.560;2022-07-09T00:35:26;27.20;35.40
20091;DHT22;10205;49.678;6.560;2022-07-09T00:37:53;27.10;35.50
20091;DHT22;10205;49.678;6.560;2022-07-09T00:40:20;27.10;35.60
20091;DHT22;10205;49.678;6.560;2022-07-09T00:42:47;27.00;35.70
20091;DHT22;10205;49.678;6.560;2022-07-09T00:45:16;26.90;35.80
20091;DHT22;10205;49.678;6.560;2022-07-09T00:47:44;26.90;35.90
20091;DHT22;10205;49.678;6.560;2022-07-09T00:50:11;26.90;35.90
20091;DHT22;10205;49.678;6.560;2022-07-09T00:52:39;26.80;36.00
20091;DHT22;10205;49.678;6.560;2022-07-09T00:55:08;26.80;36.10
20091;DHT22;10205;49.678;6.560;2022-07-09T00:57:37;26.70;36.20
20091;DHT22;10205;49.678;6.560;2022-07-09T01:00:06;26.70;36.30
20091;DHT22;10205;49.678;6.560;2022-07-09T01:02:35;26.60;36.40
20091;DHT22;10205;49.678;6.560;2022-07-09T01:05:03;26.60;36.40
20091;DHT22;10205;49.678;6.560;2022-07-09T01:07:31;26.50;36.40
20091;DHT22;10205;49.678;6.560;2022-07-09T01:09:58;26.50;36.60
20091;DHT22;10205;49.678;6.560;2022-07-09T01:12:25;26.40;36.80
20091;DHT22;10205;49.678;6.560;2022-07-09T01:14:53;26.30;36.80
20091;DHT22;10205;49.678;6.560;2022-07-09T01:17:20;26.30;37.00
20091;DHT22;10205;49.678;6.560;2022-07-09T01:19:50;26.30;37.00
20091;DHT22;10205;49.678;6.560;2022-07-09T01:22:19;26.20;37.10
20091;DHT22;10205;49.678;6.560;2022-07-09T01:24:47;26.10;37.10
20091;DHT22;10205;49.678;6.560;2022-07-09T01:27:15;26.10;37.20
20091;DHT22;10205;49.678;6.560;2022-07-09T01:29:42;26.00;37.30
20091;DHT22;10205;49.678;6.560;2022-07-09T01:32:15;26.00;37.20
20091;DHT22;10205;49.678;6.560;2022-07-09T01:34:42;25.90;37.30
20091;DHT22;10205;49.678;6.560;2022-07-09T01:37:10;25.90;37.40
20091;DHT22;10205;49.678;6.560;2022-07-09T01:39:38;25.80;37.40
20091;DHT22;10205;49.678;6.560;2022-07-09T01:42:15;25.80;37.60
20091;DHT22;10205;49.678;6.560;2022-07-09T01:44:43;25.70;37.60
20091;DHT22;10205;49.678;6.560;2022-07-09T01:47:10;25.70;37.60
20091;DHT22;10205;49.678;6.560;2022-07-09T01:49:40;25.60;37.70
20091;DHT22;10205;49.678;6.560;2022-07-09T01:52:08;25.60;37.80
20091;DHT22;10205;49.678;6.560;2022-07-09T01:54:37;25.60;37.90
20091;DHT22;10205;49.678;6.560;2022-07-09T01:57:05;25.50;37.90
20091;DHT22;10205;49.678;6.560;2022-07-09T01:59:32;25.50;38.00
20091;DHT22;10205;49.678;6.560;2022-07-09T02:01:59;25.40;38.00
20091;DHT22;10205;49.678;6.560;2022-07-09T02:04:27;25.40;38.20
20091;DHT22;10205;49.678;6.560;2022-07-09T02:06:54;25.30;38.10
20091;DHT22;10205;49.678;6.560;2022-07-09T02:09:22;25.30;38.20
20091;DHT22;10205;49.678;6.560;2022-07-09T02:11:51;25.20;38.20
20091;DHT22;10205;49.678;6.560;2022-07-09T02:14:18;25.20;38.30
20091;DHT22;10205;49.678;6.560;2022-07-09T02:16:46;25.10;38.40
20091;DHT22;10205;49.678;6.560;2022-07-09T02:19:13;25.10;38.60
20091;DHT22;10205;49.678;6.560;2022-07-09T02:21:41;25.00;38.40
20091;DHT22;10205;49.678;6.560;2022-07-09T02:24:08;25.00;38.60
20091;DHT22;10205;49.678;6.560;2022-07-09T02:26:35;24.90;38.60
20091;DHT22;10205;49.678;6.560;2022-07-09T02:29:03;24.80;38.60
20091;DHT22;10205;49.678;6.560;2022-07-09T02:31:31;24.80;38.80
20091;DHT22;10205;49.678;6.560;2022-07-09T02:33:58;24.80;38.80
20091;DHT22;10205;49.678;6.560;2022-07-09T02:36:25;24.70;38.90
20091;DHT22;10205;49.678;6.560;2022-07-09T02:38:53;24.70;39.00
20091;DHT22;10205;49.678;6.560;2022-07-09T02:41:20;24.60;39.00
20091;DHT22;10205;49.678;6.560;2022-07-09T02:43:47;24.60;39.10
20091;DHT22;10205;49.678;6.560;2022-07-09T02:46:15;24.50;39.20
20091;DHT22;10205;49.678;6.560;2022-07-09T02:48:42;24.50;39.20
20091;DHT22;10205;49.678;6.560;2022-07-09T02:51:10;24.50;39.30
20091;DHT22;10205;49.678;6.560;2022-07-09T02:53:37;24.40;39.20
20091;DHT22;10205;49.678;6.560;2022-07-09T02:56:05;24.40;39.30
20091;DHT22;10205;49.678;6.560;2022-07-09T02:58:32;24.30;39.60
20091;DHT22;10205;49.678;6.560;2022-07-09T03:00:59;24.30;39.40
20091;DHT22;10205;49.678;6.560;2022-07-09T03:03:28;24.30;39.40
20091;DHT22;10205;49.678;6.560;2022-07-09T03:05:55;24.20;39.50
20091;DHT22;10205;49.678;6.560;2022-07-09T03:08:22;24.20;39.60
20091;DHT22;10205;49.678;6.560;2022-07-09T03:10:49;24.20;39.60
20091;DHT22;10205;49.678;6.560;2022-07-09T03:13:17;24.10;39.60
20091;DHT22;10205;49.678;6.560;2022-07-09T03:15:44;24.10;39.70
20091;DHT22;10205;49.678;6.560;2022-07-09T03:18:11;24.10;39.80
20091;DHT22;10205;49.678;6.560;2022-07-09T03:20:40;24.00;39.80
20091;DHT22;10205;49.678;6.560;2022-07-09T03:23:07;24.00;39.80
20091;DHT22;10205;49.678;6.560;2022-07-09T03:25:34;23.90;39.80
20091;DHT22;10205;49.678;6.560;2022-07-09T03:28:01;23.90;40.00
20091;DHT22;10205;49.678;6.560;2022-07-09T03:30:28;23.90;40.10
20091;DHT22;10205;49.678;6.560;2022-07-09T03:32:56;23.90;40.10
20091;DHT22;10205;49.678;6.560;2022-07-09T03:35:23;23.80;40.20
20091;DHT22;10205;49.678;6.560;2022-07-09T03:37:52;23.80;40.30
20091;DHT22;10205;49.678;6.560;2022-07-09T03:40:20;23.80;40.40
20091;DHT22;10205;49.678;6.560;2022-07-09T03:42:47;23.70;40.40
20091;DHT22;10205;49.678;6.560;2022-07-09T03:45:14;23.70;40.50
20091;DHT22;10205;49.678;6.560;2022-07-09T03:47:41;23.70;40.60
20091;DHT22;10205;49.678;6.560;2022-07-09T03:50:09;23.60;40.60
20091;DHT22;10205;49.678;6.560;2022-07-09T03:52:37;23.60;40.70
20091;DHT22;10205;49.678;6.560;2022-07-09T03:55:06;23.50;40.70
20091;DHT22;10205;49.678;6.560;2022-07-09T03:57:34;23.50;40.90
20091;DHT22;10205;49.678;6.560;2022-07-09T04:00:04;23.50;40.80
20091;DHT22;10205;49.678;6.560;2022-07-09T04:02:33;23.50;41.00
20091;DHT22;10205;49.678;6.560;2022-07-09T04:05:00;23.40;41.00
20091;DHT22;10205;49.678;6.560;2022-07-09T04:07:28;23.40;41.00
20091;DHT22;10205;49.678;6.560;2022-07-09T04:09:56;23.40;41.10
20091;DHT22;10205;49.678;6.560;2022-07-09T04:12:24;23.30;41.10
20091;DHT22;10205;49.678;6.560;2022-07-09T04:14:52;23.30;41.20
20091;DHT22;10205;49.678;6.560;2022-07-09T04:17:19;23.30;41.30
20091;DHT22;10205;49.678;6.560;2022-07-09T04:19:46;23.20;41.20
20091;DHT22;10205;49.678;6.560;2022-07-09T04:22:13;23.20;41.30
20091;DHT22;10205;49.678;6.560;2022-07-09T04:24:40;23.20;41.40
20091;DHT22;10205;49.678;6.560;2022-07-09T04:27:07;23.20;41.40
20091;DHT22;10205;49.678;6.560;2022-07-09T04:29:36;23.10;41.40
20091;DHT22;10205;49.678;6.560;2022-07-09T04:32:05;23.10;41.60
20091;DHT22;10205;49.678;6.560;2022-07-09T04:34:32;23.10;41.70
20091;DHT22;10205;49.678;6.560;2022-07-09T04:37:00;23.10;42.10
20091;DHT22;10205;49.678;6.560;2022-07-09T04:39:27;23.00;41.60
20091;DHT22;10205;49.678;6.560;2022-07-09T04:41:54;23.00;41.60
20091;DHT22;10205;49.678;6.560;2022-07-09T04:44:25;23.00;41.70
20091;DHT22;10205;49.678;6.560;2022-07-09T04:46:53;22.90;41.70
20091;DHT22;10205;49.678;6.560;2022-07-09T04:49:20;22.90;41.80
20091;DHT22;10205;49.678;6.560;2022-07-09T04:51:49;22.90;41.80
20091;DHT22;10205;49.678;6.560;2022-07-09T04:54:17;22.80;41.80
20091;DHT22;10205;49.678;6.560;2022-07-09T04:56:45;22.80;41.90
20091;DHT22;10205;49.678;6.560;2022-07-09T04:59:12;22.80;42.00
20091;DHT22;10205;49.678;6.560;2022-07-09T05:01:40;22.80;42.00
20091;DHT22;10205;49.678;6.560;2022-07-09T05:04:08;22.80;42.20
20091;DHT22;10205;49.678;6.560;2022-07-09T05:06:35;22.70;42.20
20091;DHT22;10205;49.678;6.560;2022-07-09T05:09:02;22.70;42.20
20091;DHT22;10205;49.678;6.560;2022-07-09T05:11:30;22.60;42.20
20091;DHT22;10205;49.678;6.560;2022-07-09T05:13:58;22.60;42.20
20091;DHT22;10205;49.678;6.560;2022-07-09T05:16:25;22.60;42.40
20091;DHT22;10205;49.678;6.560;2022-07-09T05:18:53;22.60;42.40
20091;DHT22;10205;49.678;6.560;2022-07-09T05:21:21;22.60;42.40
20091;DHT22;10205;49.678;6.560;2022-07-09T05:23:48;22.50;43.20
20091;DHT22;10205;49.678;6.560;2022-07-09T05:26:15;22.50;42.50
20091;DHT22;10205;49.678;6.560;2022-07-09T05:28:42;22.50;42.50
20091;DHT22;10205;49.678;6.560;2022-07-09T05:31:10;22.50;42.60
20091;DHT22;10205;49.678;6.560;2022-07-09T05:33:38;22.50;42.70
20091;DHT22;10205;49.678;6.560;2022-07-09T05:36:06;22.50;42.70
20091;DHT22;10205;49.678;6.560;2022-07-09T05:38:35;22.40;42.80
20091;DHT22;10205;49.678;6.560;2022-07-09T05:41:04;22.40;43.00
20091;DHT22;10205;49.678;6.560;2022-07-09T05:43:32;22.40;43.10
20091;DHT22;10205;49.678;6.560;2022-07-09T05:46:00;22.40;42.90
20091;DHT22;10205;49.678;6.560;2022-07-09T05:48:27;22.30;43.00
20091;DHT22;10205;49.678;6.560;2022-07-09T05:50:54;22.30;44.10
20091;DHT22;10205;49.678;6.560;2022-07-09T05:53:21;22.30;43.90
20091;DHT22;10205;49.678;6.560;2022-07-09T05:55:50;22.30;43.50
20091;DHT22;10205;49.678;6.560;2022-07-09T05:58:17;22.30;44.10
20091;DHT22;10205;49.678;6.560;2022-07-09T06:00:48;22.30;43.60
20091;DHT22;10205;49.678;6.560;2022-07-09T06:03:15;22.20;44.50
20091;DHT22;10205;49.678;6.560;2022-07-09T06:05:42;22.20;44.20
20091;DHT22;10205;49.678;6.560;2022-07-09T06:08:10;22.20;44.20
20091;DHT22;10205;49.678;6.560;2022-07-09T06:10:37;22.20;44.50
20091;DHT22;10205;49.678;6.560;2022-07-09T06:13:09;22.10;44.20
20091;DHT22;10205;49.678;6.560;2022-07-09T06:15:36;22.10;44.20
20091;DHT22;10205;49.678;6.560;2022-07-09T06:18:03;22.10;44.70
20091;DHT22;10205;49.678;6.560;2022-07-09T06:20:31;22.10;45.00
20091;DHT22;10205;49.678;6.560;2022-07-09T06:22:58;22.10;45.90
20091;DHT22;10205;49.678;6.560;2022-07-09T06:25:26;22.10;45.20
20091;DHT22;10205;49.678;6.560;2022-07-09T06:31:04;22.10;46.20
20091;DHT22;10205;49.678;6.560;2022-07-09T06:33:31;22.10;46.50
20091;DHT22;10205;49.678;6.560;2022-07-09T06:35:59;22.20;46.20
20091;DHT22;10205;49.678;6.560;2022-07-09T06:38:28;22.20;46.00
20091;DHT22;10205;49.678;6.560;2022-07-09T06:40:55;22.20;46.20
20091;DHT22;10205;49.678;6.560;2022-07-09T06:43:23;22.20;47.00
20091;DHT22;10205;49.678;6.560;2022-07-09T06:45:51;22.20;46.60
20091;DHT22;10205;49.678;6.560;2022-07-09T06:48:19;22.20;47.30
20091;DHT22;10205;49.678;6.560;2022-07-09T06:50:47;22.20;47.20
20091;DHT22;10205;49.678;6.560;2022-07-09T06:53:15;22.30;47.40
20091;DHT22;10205;49.678;6.560;2022-07-09T06:55:42;22.30;47.60
20091;DHT22;10205;49.678;6.560;2022-07-09T06:58:09;22.30;47.90
20091;DHT22;10205;49.678;6.560;2022-07-09T07:00:37;22.40;47.60
20091;DHT22;10205;49.678;6.560;2022-07-09T07:03:05;22.40;47.50
20091;DHT22;10205;49.678;6.560;2022-07-09T07:05:32;22.40;47.40
20091;DHT22;10205;49.678;6.560;2022-07-09T07:07:59;22.50;47.90
20091;DHT22;10205;49.678;6.560;2022-07-09T07:10:27;22.50;47.50
20091;DHT22;10205;49.678;6.560;2022-07-09T07:12:54;22.50;47.80
20091;DHT22;10205;49.678;6.560;2022-07-09T07:15:22;22.60;48.70
20091;DHT22;10205;49.678;6.560;2022-07-09T07:17:49;22.60;49.20
20091;DHT22;10205;49.678;6.560;2022-07-09T07:20:17;22.70;48.80
20091;DHT22;10205;49.678;6.560;2022-07-09T07:22:48;22.70;48.40
20091;DHT22;10205;49.678;6.560;2022-07-09T07:25:15;22.80;48.60
20091;DHT22;10205;49.678;6.560;2022-07-09T07:27:43;22.80;49.00
20091;DHT22;10205;49.678;6.560;2022-07-09T07:30:13;22.90;49.30
20091;DHT22;10205;49.678;6.560;2022-07-09T07:32:40;22.90;49.30
20091;DHT22;10205;49.678;6.560;2022-07-09T07:35:07;23.00;47.90
20091;DHT22;10205;49.678;6.560;2022-07-09T07:37:36;23.10;47.80
20091;DHT22;10205;49.678;6.560;2022-07-09T07:40:05;23.10;47.80
20091;DHT22;10205;49.678;6.560;2022-07-09T07:42:33;23.20;48.40
20091;DHT22;10205;49.678;6.560;2022-07-09T07:45:00;23.30;48.20
20091;DHT22;10205;49.678;6.560;2022-07-09T07:47:27;23.30;48.40
20091;DHT22;10205;49.678;6.560;2022-07-09T07:49:54;23.40;47.70
20091;DHT22;10205;49.678;6.560;2022-07-09T07:52:22;23.50;48.00
20091;DHT22;10205;49.678;6.560;2022-07-09T07:54:50;23.50;48.50
20091;DHT22;10205;49.678;6.560;2022-07-09T07:57:17;23.60;48.80
20091;DHT22;10205;49.678;6.560;2022-07-09T07:59:44;23.70;48.30
20091;DHT22;10205;49.678;6.560;2022-07-09T08:02:12;23.70;48.70
20091;DHT22;10205;49.678;6.560;2022-07-09T08:04:40;23.80;48.90
20091;DHT22;10205;49.678;6.560;2022-07-09T08:07:07;23.90;49.30
20091;DHT22;10205;49.678;6.560;2022-07-09T08:09:34;24.00;48.50
20091;DHT22;10205;49.678;6.560;2022-07-09T08:12:03;24.10;48.80
20091;DHT22;10205;49.678;6.560;2022-07-09T08:14:31;24.20;48.70
20091;DHT22;10205;49.678;6.560;2022-07-09T08:16:58;24.30;47.70
20091;DHT22;10205;49.678;6.560;2022-07-09T08:19:25;24.40;48.40
20091;DHT22;10205;49.678;6.560;2022-07-09T08:21:52;24.40;48.10
20091;DHT22;10205;49.678;6.560;2022-07-09T08:24:19;24.50;47.60
20091;DHT22;10205;49.678;6.560;2022-07-09T08:26:46;24.60;48.30
20091;DHT22;10205;49.678;6.560;2022-07-09T08:29:15;24.70;47.40
20091;DHT22;10205;49.678;6.560;2022-07-09T08:31:42;24.80;47.20
20091;DHT22;10205;49.678;6.560;2022-07-09T08:34:09;24.90;47.20
20091;DHT22;10205;49.678;6.560;2022-07-09T08:36:36;25.00;47.20
20091;DHT22;10205;49.678;6.560;2022-07-09T08:39:04;25.10;46.80
20091;DHT22;10205;49.678;6.560;2022-07-09T08:41:31;25.20;46.60
20091;DHT22;10205;49.678;6.560;2022-07-09T08:43:58;25.20;46.30
20091;DHT22;10205;49.678;6.560;2022-07-09T08:46:31;25.40;46.10
20091;DHT22;10205;49.678;6.560;2022-07-09T08:48:59;25.40;45.60
20091;DHT22;10205;49.678;6.560;2022-07-09T08:51:28;25.60;45.60
20091;DHT22;10205;49.678;6.560;2022-07-09T08:53:57;25.60;46.10
20091;DHT22;10205;49.678;6.560;2022-07-09T08:56:25;25.70;45.20
20091;DHT22;10205;49.678;6.560;2022-07-09T08:58:52;25.80;45.10
20091;DHT22;10205;49.678;6.560;2022-07-09T09:01:19;25.90;45.00
20091;DHT22;10205;49.678;6.560;2022-07-09T09:03:48;25.90;44.90
20091;DHT22;10205;49.678;6.560;2022-07-09T09:06:15;26.00;44.60
20091;DHT22;10205;49.678;6.560;2022-07-09T09:08:44;26.10;44.50
20091;DHT22;10205;49.678;6.560;2022-07-09T09:11:14;26.20;44.00
20091;DHT22;10205;49.678;6.560;2022-07-09T09:13:43;26.20;44.40
20091;DHT22;10205;49.678;6.560;2022-07-09T09:16:12;26.30;44.00
20091;DHT22;10205;49.678;6.560;2022-07-09T09:18:43;26.30;43.90
20091;DHT22;10205;49.678;6.560;2022-07-09T09:21:13;26.40;43.70
20091;DHT22;10205;49.678;6.560;2022-07-09T09:23:43;26.50;43.40
20091;DHT22;10205;49.678;6.560;2022-07-09T09:26:13;26.60;42.80
20091;DHT22;10205;49.678;6.560;2022-07-09T09:28:50;26.70;43.10
20091;DHT22;10205;49.678;6.560;2022-07-09T09:31:23;26.70;42.70
20091;DHT22;10205;49.678;6.560;2022-07-09T09:33:52;26.80;42.70
20091;DHT22;10205;49.678;6.560;2022-07-09T09:36:30;26.90;42.40
20091;DHT22;10205;49.678;6.560;2022-07-09T09:41:44;27.00;42.00
20091;DHT22;10205;49.678;6.560;2022-07-09T09:44:15;27.10;42.10
20091;DHT22;10205;49.678;6.560;2022-07-09T09:46:45;27.20;41.90
20091;DHT22;10205;49.678;6.560;2022-07-09T09:49:15;27.30;41.70
20091;DHT22;10205;49.678;6.560;2022-07-09T09:51:47;27.40;41.70
20091;DHT22;10205;49.678;6.560;2022-07-09T09:54:19;27.50;41.40
20091;DHT22;10205;49.678;6.560;2022-07-09T09:56:48;27.50;41.30
20091;DHT22;10205;49.678;6.560;2022-07-09T09:59:16;27.60;41.20
20091;DHT22;10205;49.678;6.560;2022-07-09T10:01:47;27.70;40.90
20091;DHT22;10205;49.678;6.560;2022-07-09T10:04:15;27.80;41.20
20091;DHT22;10205;49.678;6.560;2022-07-09T10:06:42;27.80;40.90
20091;DHT22;10205;49.678;6.560;2022-07-09T10:09:14;27.90;41.10
20091;DHT22;10205;49.678;6.560;2022-07-09T10:11:48;28.00;40.90
20091;DHT22;10205;49.678;6.560;2022-07-09T10:14:17;28.00;41.00
20091;DHT22;10205;49.678;6.560;2022-07-09T10:17:08;28.10;40.50
20091;DHT22;10205;49.678;6.560;2022-07-09T10:19:38;28.20;39.90
20091;DHT22;10205;49.678;6.560;2022-07-09T10:22:19;28.30;39.80
20091;DHT22;10205;49.678;6.560;2022-07-09T10:24:50;28.30;39.20
20091;DHT22;10205;49.678;6.560;2022-07-09T10:27:18;28.40;38.20
20091;DHT22;10205;49.678;6.560;2022-07-09T10:29:54;28.40;39.10
20091;DHT22;10205;49.678;6.560;2022-07-09T10:32:25;28.50;38.80
20091;DHT22;10205;49.678;6.560;2022-07-09T10:34:57;28.60;39.10
20091;DHT22;10205;49.678;6.560;2022-07-09T10:37:34;28.60;38.90
20091;DHT22;10205;49.678;6.560;2022-07-09T10:40:10;28.70;38.80
20091;DHT22;10205;49.678;6.560;2022-07-09T10:42:40;28.70;38.40
20091;DHT22;10205;49.678;6.560;2022-07-09T10:45:22;28.80;38.90
20091;DHT22;10205;49.678;6.560;2022-07-09T10:47:55;28.90;38.10
20091;DHT22;10205;49.678;6.560;2022-07-09T10:50:26;29.00;38.00
20091;DHT22;10205;49.678;6.560;2022-07-09T10:52:56;29.10;37.80
20091;DHT22;10205;49.678;6.560;2022-07-09T10:55:25;29.10;37.50
20091;DHT22;10205;49.678;6.560;2022-07-09T10:57:55;29.20;37.40
20091;DHT22;10205;49.678;6.560;2022-07-09T11:00:24;29.20;37.60
20091;DHT22;10205;49.678;6.560;2022-07-09T11:02:54;29.30;38.30
20091;DHT22;10205;49.678;6.560;2022-07-09T11:05:23;29.40;36.60
20091;DHT22;10205;49.678;6.560;2022-07-09T11:08:03;29.40;36.90
20091;DHT22;10205;49.678;6.560;2022-07-09T11:10:32;29.40;36.60
20091;DHT22;10205;49.678;6.560;2022-07-09T11:13:01;29.50;36.90
20091;DHT22;10205;49.678;6.560;2022-07-09T11:15:31;29.60;36.80
20091;DHT22;10205;49.678;6.560;2022-07-09T11:18:02;29.70;35.90
20091;DHT22;10205;49.678;6.560;2022-07-09T11:20:32;29.70;36.10
20091;DHT22;10205;49.678;6.560;2022-07-09T11:23:09;29.70;35.90
20091;DHT22;10205;49.678;6.560;2022-07-09T11:25:37;29.80;35.10
20091;DHT22;10205;49.678;6.560;2022-07-09T11:28:05;29.80;35.60
20091;DHT22;10205;49.678;6.560;2022-07-09T11:30:33;29.90;35.50
20091;DHT22;10205;49.678;6.560;2022-07-09T11:33:02;30.00;35.50
20091;DHT22;10205;49.678;6.560;2022-07-09T11:35:33;30.00;35.60
20091;DHT22;10205;49.678;6.560;2022-07-09T11:38:04;30.10;35.30
20091;DHT22;10205;49.678;6.560;2022-07-09T11:40:39;30.20;35.20
20091;DHT22;10205;49.678;6.560;2022-07-09T11:43:13;30.30;35.00
20091;DHT22;10205;49.678;6.560;2022-07-09T11:45:53;30.40;34.30
20091;DHT22;10205;49.678;6.560;2022-07-09T11:48:48;30.40;34.50
20091;DHT22;10205;49.678;6.560;2022-07-09T11:51:26;30.50;34.90
20091;DHT22;10205;49.678;6.560;2022-07-09T11:54:00;30.60;34.90
20091;DHT22;10205;49.678;6.560;2022-07-09T11:56:43;30.60;34.80
20091;DHT22;10205;49.678;6.560;2022-07-09T11:59:26;30.70;34.50
20091;DHT22;10205;49.678;6.560;2022-07-09T12:01:57;30.70;34.30
20091;DHT22;10205;49.678;6.560;2022-07-09T12:04:29;30.80;34.10
20091;DHT22;10205;49.678;6.560;2022-07-09T12:06:58;30.90;33.60
20091;DHT22;10205;49.678;6.560;2022-07-09T12:09:28;30.90;33.10
20091;DHT22;10205;49.678;6.560;2022-07-09T12:11:58;31.00;33.90
20091;DHT22;10205;49.678;6.560;2022-07-09T12:14:26;31.00;33.60
20091;DHT22;10205;49.678;6.560;2022-07-09T12:16:55;31.00;34.40
20091;DHT22;10205;49.678;6.560;2022-07-09T12:19:28;31.00;33.60
20091;DHT22;10205;49.678;6.560;2022-07-09T12:22:00;31.10;33.30
20091;DHT22;10205;49.678;6.560;2022-07-09T12:24:28;31.20;33.00
20091;DHT22;10205;49.678;6.560;2022-07-09T12:26:55;31.20;32.60
20091;DHT22;10205;49.678;6.560;2022-07-09T12:29:24;31.10;32.30
20091;DHT22;10205;49.678;6.560;2022-07-09T13:22:37;31.00;31.10
20091;DHT22;10205;49.678;6.560;2022-07-09T13:25:06;31.00;30.60
20091;DHT22;10205;49.678;6.560;2022-07-09T13:27:33;31.10;30.40
20091;DHT22;10205;49.678;6.560;2022-07-09T13:30:00;31.10;30.70
20091;DHT22;10205;49.678;6.560;2022-07-09T13:32:28;31.20;30.90
20091;DHT22;10205;49.678;6.560;2022-07-09T13:34:55;31.30;30.90
20091;DHT22;10205;49.678;6.560;2022-07-09T13:37:22;31.40;30.70
20091;DHT22;10205;49.678;6.560;2022-07-09T13:39:51;31.50;30.90
20091;DHT22;10205;49.678;6.560;2022-07-09T13:42:18;31.60;30.00
20091;DHT22;10205;49.678;6.560;2022-07-09T13:44:45;31.60;30.40
20091;DHT22;10205;49.678;6.560;2022-07-09T13:47:13;31.70;30.30
20091;DHT22;10205;49.678;6.560;2022-07-09T13:49:40;31.80;30.00
20091;DHT22;10205;49.678;6.560;2022-07-09T13:52:08;31.90;29.90
20091;DHT22;10205;49.678;6.560;2022-07-09T13:54:35;31.90;29.70
20091;DHT22;10205;49.678;6.560;2022-07-09T13:57:04;32.00;29.90
20091;DHT22;10205;49.678;6.560;2022-07-09T13:59:31;32.00;29.70
20091;DHT22;10205;49.678;6.560;2022-07-09T14:01:59;32.00;29.80
20091;DHT22;10205;49.678;6.560;2022-07-09T14:04:26;32.00;29.80
20091;DHT22;10205;49.678;6.560;2022-07-09T14:06:53;32.00;29.80
20091;DHT22;10205;49.678;6.560;2022-07-09T14:09:20;32.00;29.80
20091;DHT22;10205;49.678;6.560;2022-07-09T14:11:47;32.10;30.00
20091;DHT22;10205;49.678;6.560;2022-07-09T14:14:16;32.10;29.80
20091;DHT22;10205;49.678;6.560;2022-07-09T14:16:49;32.10;29.30
20091;DHT22;10205;49.678;6.560;2022-07-09T14:19:17;32.10;29.40
20091;DHT22;10205;49.678;6.560;2022-07-09T14:21:44;32.20;29.80
20091;DHT22;10205;49.678;6.560;2022-07-09T14:24:11;32.20;30.00
20091;DHT22;10205;49.678;6.560;2022-07-09T14:49:03;32.50;29.40
20091;DHT22;10205;49.678;6.560;2022-07-09T14:51:31;32.50;29.50
20091;DHT22;10205;49.678;6.560;2022-07-09T14:53:59;32.50;29.80
20091;DHT22;10205;49.678;6.560;2022-07-09T14:56:26;32.60;29.60
20091;DHT22;10205;49.678;6.560;2022-07-09T14:58:54;32.60;29.50
20091;DHT22;10205;49.678;6.560;2022-07-09T15:01:21;32.60;29.60
20091;DHT22;10205;49.678;6.560;2022-07-09T15:03:49;32.60;29.60
20091;DHT22;10205;49.678;6.560;2022-07-09T15:06:17;32.60;30.10
20091;DHT22;10205;49.678;6.560;2022-07-09T15:08:45;32.60;29.50
20091;DHT22;10205;49.678;6.560;2022-07-09T15:11:12;32.70;29.40
20091;DHT22;10205;49.678;6.560;2022-07-09T15:13:39;32.70;29.40
20091;DHT22;10205;49.678;6.560;2022-07-09T15:16:07;32.70;29.50
20091;DHT22;10205;49.678;6.560;2022-07-09T15:18:34;32.70;29.90
20091;DHT22;10205;49.678;6.560;2022-07-09T15:21:03;32.70;29.20
20091;DHT22;10205;49.678;6.560;2022-07-09T15:23:36;32.80;29.40
20091;DHT22;10205;49.678;6.560;2022-07-09T15:26:05;32.80;29.60
20091;DHT22;10205;49.678;6.560;2022-07-09T15:28:35;32.80;29.60
20091;DHT22;10205;49.678;6.560;2022-07-09T15:49:57;33.00;29.40
20091;DHT22;10205;49.678;6.560;2022-07-09T15:52:24;33.00;29.30
20091;DHT22;10205;49.678;6.560;2022-07-09T15:54:51;33.00;29.20
20091;DHT22;10205;49.678;6.560;2022-07-09T15:57:18;33.00;29.40
20091;DHT22;10205;49.678;6.560;2022-07-09T15:59:45;33.00;29.40
20091;DHT22;10205;49.678;6.560;2022-07-09T16:02:13;33.00;29.40
20091;DHT22;10205;49.678;6.560;2022-07-09T16:04:40;33.00;29.40
20091;DHT22;10205;49.678;6.560;2022-07-09T16:07:34;33.00;29.60
20091;DHT22;10205;49.678;6.560;2022-07-09T16:10:15;33.00;29.60
20091;DHT22;10205;49.678;6.560;2022-07-09T16:13:18;33.10;29.60
20091;DHT22;10205;49.678;6.560;2022-07-09T16:19:46;33.10;29.50
20091;DHT22;10205;49.678;6.560;2022-07-09T16:22:28;33.20;29.60
20091;DHT22;10205;49.678;6.560;2022-07-09T16:24:57;33.20;29.50
20091;DHT22;10205;49.678;6.560;2022-07-09T16:27:25;33.30;29.50
20091;DHT22;10205;49.678;6.560;2022-07-09T16:29:52;33.20;29.50
20091;DHT22;10205;49.678;6.560;2022-07-09T16:32:38;33.30;29.70
20091;DHT22;10205;49.678;6.560;2022-07-09T16:35:48;33.30;29.40
20091;DHT22;10205;49.678;6.560;2022-07-09T16:38:44;33.30;29.50
20091;DHT22;10205;49.678;6.560;2022-07-09T16:41:14;33.30;29.10
20091;DHT22;10205;49.678;6.560;2022-07-09T16:44:12;33.30;29.40
20091;DHT22;10205;49.678;6.560;2022-07-09T16:46:55;33.30;29.40
20091;DHT22;10205;49.678;6.560;2022-07-09T17:04:46;33.00;29.70
20091;DHT22;10205;49.678;6.560;2022-07-09T17:07:13;32.90;29.90
20091;DHT22;10205;49.678;6.560;2022-07-09T17:09:40;32.80;30.00
20091;DHT22;10205;49.678;6.560;2022-07-09T17:12:08;32.70;30.80
20091;DHT22;10205;49.678;6.560;2022-07-09T17:14:35;32.60;31.10
20091;DHT22;10205;49.678;6.560;2022-07-09T17:17:03;32.60;31.70
20091;DHT22;10205;49.678;6.560;2022-07-09T17:19:30;32.50;31.70
20091;DHT22;10205;49.678;6.560;2022-07-09T17:21:59;32.40;32.00
20091;DHT22;10205;49.678;6.560;2022-07-09T17:24:26;32.30;32.20
20091;DHT22;10205;49.678;6.560;2022-07-09T17:26:54;32.20;32.40
20091;DHT22;10205;49.678;6.560;2022-07-09T17:29:21;32.20;32.40
20091;DHT22;10205;49.678;6.560;2022-07-09T17:31:48;32.20;32.50
20091;DHT22;10205;49.678;6.560;2022-07-09T17:34:15;32.10;32.50
20091;DHT22;10205;49.678;6.560;2022-07-09T17:36:43;32.00;32.70
20091;DHT22;10205;49.678;6.560;2022-07-09T17:39:12;32.00;32.90